sensor_id;sensor_type;location;lat;lon;timestamp;temperature;humidity
66610;DHT22;53468;48.276;14.416;2022-11-20T00:02:13;1.90;99.90
66610;DHT22;53468;48.276;14.416;2022-11-20T00:07:46;1.90;99.90
66610;DHT22;53468;48.276;14.416;2022-11-20T00:13:20;1.90;99.90
66610;DHT22;53468;48.276;14.416;2022-11-20T00:18:53;2.00;99.90
66610;DHT22;53468;48.276;14.416;2022-11-20T00:24:25;2.00;99.90
66610;DHT22;53468;48.276;14.416;2022-11-20T00:29:59;2.00;99.90
66610;DHT22;53468;48.276;14.416;2022-11-20T00:35:31;1.90;99.90
66610;DHT22;53468;48.276;14.416;2022-11-20T00:41:05;2.00;99.90
66610;DHT22;53468;48.276;14.416;2022-11-20T00:46:38;2.00;99.90
66610;DHT22;53468;48.276;14.416;2022-11-20T00:52:10;2.00;99.90
66610;DHT22;53468;48.276;14.416;2022-11-20T00:57:43;2.00;99.90
66610;DHT22;53468;48.276;14.416;2022-11-20T01:03:16;2.00;99.90
66610;DHT22;53468;48.276;14.416;2022-11-20T01:08:52;2.00;99.90
66610;DHT22;53468;48.276;14.416;2022-11-20T01:14:25;2.00;99.90
66610;DHT22;53468;48.276;14.416;2022-11-20T01:19:59;2.10;99.90
66610;DHT22;53468;48.276;14.416;2022-11-20T01:25:31;2.00;99.90
66610;DHT22;53468;48.276;14.416;2022-11-20T01:31:12;1.90;99.90
66610;DHT22;53468;48.276;14.416;2022-11-20T01:36:46;2.00;99.90
66610;DHT22;53468;48.276;14.416;2022-11-20T01:42:18;2.00;99.90
66610;DHT22;53468;48.276;14.416;2022-11-20T01:48:08;2.00;99.90
66610;DHT22;53468;48.276;14.416;2022-11-20T01:53:42;2.00;99.90
66610;DHT22;53468;48.276;14.416;2022-11-20T01:59:17;2.00;99.90
66610;DHT22;53468;48.276;14.416;2022-11-20T02:04:52;2.00;99.90
66610;DHT22;53468;48.276;14.416;2022-11-20T02:10:29;2.00;99.90
66610;DHT22;53468;48.276;14.416;2022-11-20T02:16:03;2.10;99.90
66610;DHT22;53468;48.276;14.416;2022-11-20T02:21:39;2.00;99.90
66610;DHT22;53468;48.276;14.416;2022-11-20T02:27:15;2.10;99.90
66610;DHT22;53468;48.276;14.416;2022-11-20T02:32:48;2.00;99.90
66610;DHT22;53468;48.276;14.416;2022-11-20T02:38:20;2.10;99.90
66610;DHT22;53468;48.276;14.416;2022-11-20T02:43:55;2.10;99.90
66610;DHT22;53468;48.276;14.416;2022-11-20T02:49:27;2.20;99.90
66610;DHT22;53468;48.276;14.416;2022-11-20T02:55:00;2.20;99.90
66610;DHT22;53468;48.276;14.416;2022-11-20T03:00:33;2.20;99.90
66610;DHT22;53468;48.276;14.416;2022-11-20T03:06:07;2.20;99.90
66610;DHT22;53468;48.276;14.416;2022-11-20T03:11:39;2.10;99.90
66610;DHT22;53468;48.276;14.416;2022-11-20T03:17:13;2.10;99.90
66610;DHT22;53468;48.276;14.416;2022-11-20T03:22:45;2.20;99.90
66610;DHT22;53468;48.276;14.416;2022-11-20T03:28:17;2.20;99.90
66610;DHT22;53468;48.276;14.416;2022-11-20T03:33:51;2.30;99.90
66610;DHT22;53468;48.276;14.416;2022-11-20T03:39:23;2.30;99.90
66610;DHT22;53468;48.276;14.416;2022-11-20T03:44:55;2.20;99.90
66610;DHT22;53468;48.276;14.416;2022-11-20T03:50:29;2.00;99.90
66610;DHT22;53468;48.276;14.416;2022-11-20T03:56:01;2.10;99.90
66610;DHT22;53468;48.276;14.416;2022-11-20T04:01:34;2.10;99.90
66610;DHT22;53468;48.276;14.416;2022-11-20T04:07:09;2.10;99.90
66610;DHT22;53468;48.276;14.416;2022-11-20T04:12:41;2.20;99.90
66610;DHT22;53468;48.276;14.416;2022-11-20T04:18:13;2.00;99.90
66610;DHT22;53468;48.276;14.416;2022-11-20T04:23:47;2.10;99.90
66610;DHT22;53468;48.276;14.416;2022-11-20T04:29:19;2.10;99.90
66610;DHT22;53468;48.276;14.416;2022-11-20T04:34:51;2.10;99.90
66610;DHT22;53468;48.276;14.416;2022-11-20T04:40:24;2.20;99.90
66610;DHT22;53468;48.276;14.416;2022-11-20T04:45:57;2.20;99.90
66610;DHT22;53468;48.276;14.416;2022-11-20T04:51:30;2.20;99.90
66610;DHT22;53468;48.276;14.416;2022-11-20T04:57:04;2.20;99.90
66610;DHT22;53468;48.276;14.416;2022-11-20T05:02:36;2.20;99.90
66610;DHT22;53468;48.276;14.416;2022-11-20T05:08:08;2.20;99.90
66610;DHT22;53468;48.276;14.416;2022-11-20T05:13:42;2.20;99.90
66610;DHT22;53468;48.276;14.416;2022-11-20T05:19:16;2.20;99.90
66610;DHT22;53468;48.276;14.416;2022-11-20T05:24:48;2.20;99.90
66610;DHT22;53468;48.276;14.416;2022-11-20T05:30:21;2.20;99.90
66610;DHT22;53468;48.276;14.416;2022-11-20T05:35:58;2.30;99.90
66610;DHT22;53468;48.276;14.416;2022-11-20T05:41:30;2.30;99.90
66610;DHT22;53468;48.276;14.416;2022-11-20T05:47:03;2.30;99.90
66610;DHT22;53468;48.276;14.416;2022-11-20T05:52:36;2.40;99.90
66610;DHT22;53468;48.276;14.416;2022-11-20T05:58:29;2.40;99.90
66610;DHT22;53468;48.276;14.416;2022-11-20T06:04:03;2.40;99.90
66610;DHT22;53468;48.276;14.416;2022-11-20T06:09:36;2.40;99.90
66610;DHT22;53468;48.276;14.416;2022-11-20T06:15:08;2.40;99.90
66610;DHT22;53468;48.276;14.416;2022-11-20T06:20:42;2.40;99.90
66610;DHT22;53468;48.276;14.416;2022-11-20T06:26:16;2.50;99.90
66610;DHT22;53468;48.276;14.416;2022-11-20T06:31:48;2.40;99.90
66610;DHT22;53468;48.276;14.416;2022-11-20T06:37:21;2.50;99.90
66610;DHT22;53468;48.276;14.416;2022-11-20T06:42:54;2.50;99.90
66610;DHT22;53468;48.276;14.416;2022-11-20T06:48:27;2.40;99.90
66610;DHT22;53468;48.276;14.416;2022-11-20T06:54:00;2.50;99.90
66610;DHT22;53468;48.276;14.416;2022-11-20T06:59:33;2.60;99.90
66610;DHT22;53468;48.276;14.416;2022-11-20T07:05:05;2.60;99.90
66610;DHT22;53468;48.276;14.416;2022-11-20T07:10:39;2.70;99.90
66610;DHT22;53468;48.276;14.416;2022-11-20T07:16:11;2.70;99.90
66610;DHT22;53468;48.276;14.416;2022-11-20T07:21:43;2.70;99.90
66610;DHT22;53468;48.276;14.416;2022-11-20T07:27:17;2.80;99.90
66610;DHT22;53468;48.276;14.416;2022-11-20T07:32:51;2.90;99.90
66610;DHT22;53468;48.276;14.416;2022-11-20T07:38:23;2.90;99.90
66610;DHT22;53468;48.276;14.416;2022-11-20T07:43:57;2.90;99.90
66610;DHT22;53468;48.276;14.416;2022-11-20T07:49:29;2.90;99.90
66610;DHT22;53468;48.276;14.416;2022-11-20T07:55:01;2.90;99.90
66610;DHT22;53468;48.276;14.416;2022-11-20T08:00:34;3.00;99.90
66610;DHT22;53468;48.276;14.416;2022-11-20T08:06:07;3.00;99.90
66610;DHT22;53468;48.276;14.416;2022-11-20T08:11:47;3.00;99.90
66610;DHT22;53468;48.276;14.416;2022-11-20T08:24:41;3.00;99.90
66610;DHT22;53468;48.276;14.416;2022-11-20T08:30:50;3.00;99.90
66610;DHT22;53468;48.276;14.416;2022-11-20T08:36:33;2.90;99.90
66610;DHT22;53468;48.276;14.416;2022-11-20T08:48:48;3.00;99.90
66610;DHT22;53468;48.276;14.416;2022-11-20T08:54:42;3.10;99.90
66610;DHT22;53468;48.276;14.416;2022-11-20T09:01:30;3.20;99.90
66610;DHT22;53468;48.276;14.416;2022-11-20T09:26:41;3.90;99.90
66610;DHT22;53468;48.276;14.416;2022-11-20T09:32:13;4.00;99.90
66610;DHT22;53468;48.276;14.416;2022-11-20T09:37:46;3.90;99.90
66610;DHT22;53468;48.276;14.416;2022-11-20T09:43:21;4.20;99.90
66610;DHT22;53468;48.276;14.416;2022-11-20T09:49:07;4.20;99.90
66610;DHT22;53468;48.276;14.416;2022-11-20T09:54:46;4.40;99.90
66610;DHT22;53468;48.276;14.416;2022-11-20T10:00:27;4.50;99.90
66610;DHT22;53468;48.276;14.416;2022-11-20T10:06:03;4.50;99.90
66610;DHT22;53468;48.276;14.416;2022-11-20T10:11:46;4.50;99.90
66610;DHT22;53468;48.276;14.416;2022-11-20T10:17:30;4.80;99.90
66610;DHT22;53468;48.276;14.416;2022-11-20T10:23:23;4.90;99.90
66610;DHT22;53468;48.276;14.416;2022-11-20T10:29:09;5.10;99.90
66610;DHT22;53468;48.276;14.416;2022-11-20T10:34:48;5.10;99.90
66610;DHT22;53468;48.276;14.416;2022-11-20T10:40:27;5.30;99.90
66610;DHT22;53468;48.276;14.416;2022-11-20T10:46:06;5.20;99.90
66610;DHT22;53468;48.276;14.416;2022-11-20T10:51:56;5.30;99.90
66610;DHT22;53468;48.276;14.416;2022-11-20T10:57:47;5.20;99.90
66610;DHT22;53468;48.276;14.416;2022-11-20T11:03:26;5.30;99.90
66610;DHT22;53468;48.276;14.416;2022-11-20T11:09:09;5.40;99.90
66610;DHT22;53468;48.276;14.416;2022-11-20T11:14:47;5.50;99.90
66610;DHT22;53468;48.276;14.416;2022-11-20T11:20:22;5.60;99.90
66610;DHT22;53468;48.276;14.416;2022-11-20T11:25:59;5.70;99.90
66610;DHT22;53468;48.276;14.416;2022-11-20T11:31:32;5.90;99.90
66610;DHT22;53468;48.276;14.416;2022-11-20T11:37:18;5.90;99.90
66610;DHT22;53468;48.276;14.416;2022-11-20T11:42:57;5.90;99.90
66610;DHT22;53468;48.276;14.416;2022-11-20T11:48:30;5.80;99.90
66610;DHT22;53468;48.276;14.416;2022-11-20T11:54:10;5.90;99.90
66610;DHT22;53468;48.276;14.416;2022-11-20T11:59:59;5.90;99.90
66610;DHT22;53468;48.276;14.416;2022-11-20T12:05:38;5.90;99.90
66610;DHT22;53468;48.276;14.416;2022-11-20T12:11:29;5.70;99.90
66610;DHT22;53468;48.276;14.416;2022-11-20T12:17:04;5.80;99.90
66610;DHT22;53468;48.276;14.416;2022-11-20T12:22:44;5.80;99.90
66610;DHT22;53468;48.276;14.416;2022-11-20T12:28:44;5.70;99.90
66610;DHT22;53468;48.276;14.416;2022-11-20T12:34:43;5.70;99.90
66610;DHT22;53468;48.276;14.416;2022-11-20T12:40:28;5.60;99.90
66610;DHT22;53468;48.276;14.416;2022-11-20T12:46:18;5.70;99.90
66610;DHT22;53468;48.276;14.416;2022-11-20T12:58:09;5.70;99.90
66610;DHT22;53468;48.276;14.416;2022-11-20T13:03:45;5.80;99.90
66610;DHT22;53468;48.276;14.416;2022-11-20T13:09:22;5.90;99.90
66610;DHT22;53468;48.276;14.416;2022-11-20T13:15:01;5.90;99.90
66610;DHT22;53468;48.276;14.416;2022-11-20T13:20:41;5.90;99.90
66610;DHT22;53468;48.276;14.416;2022-11-20T13:26:17;5.90;99.90
66610;DHT22;53468;48.276;14.416;2022-11-20T13:31:51;6.00;99.90
66610;DHT22;53468;48.276;14.416;2022-11-20T13:37:29;5.90;99.90
66610;DHT22;53468;48.276;14.416;2022-11-20T13:43:11;5.90;99.90
66610;DHT22;53468;48.276;14.416;2022-11-20T13:48:48;5.80;99.90
66610;DHT22;53468;48.276;14.416;2022-11-20T14:00:23;5.90;99.90
66610;DHT22;53468;48.276;14.416;2022-11-20T14:06:00;5.90;99.90
66610;DHT22;53468;48.276;14.416;2022-11-20T14:11:34;5.80;99.90
66610;DHT22;53468;48.276;14.416;2022-11-20T14:17:07;5.80;99.90
66610;DHT22;53468;48.276;14.416;2022-11-20T14:22:48;5.80;99.90
66610;DHT22;53468;48.276;14.416;2022-11-20T14:28:25;5.80;99.90
66610;DHT22;53468;48.276;14.416;2022-11-20T14:33:58;5.80;99.90
66610;DHT22;53468;48.276;14.416;2022-11-20T14:39:34;5.70;99.90
66610;DHT22;53468;48.276;14.416;2022-11-20T14:45:11;5.70;99.90
66610;DHT22;53468;48.276;14.416;2022-11-20T14:50:47;5.70;99.90
66610;DHT22;53468;48.276;14.416;2022-11-20T14:56:23;5.60;99.90
66610;DHT22;53468;48.276;14.416;2022-11-20T15:01:58;5.50;99.90
66610;DHT22;53468;48.276;14.416;2022-11-20T15:07:32;5.50;99.90
66610;DHT22;53468;48.276;14.416;2022-11-20T15:13:11;5.40;99.90
66610;DHT22;53468;48.276;14.416;2022-11-20T15:18:44;5.30;99.90
66610;DHT22;53468;48.276;14.416;2022-11-20T15:24:17;5.30;99.90
66610;DHT22;53468;48.276;14.416;2022-11-20T15:29:52;5.30;99.90
66610;DHT22;53468;48.276;14.416;2022-11-20T15:35:24;5.30;99.90
66610;DHT22;53468;48.276;14.416;2022-11-20T15:40:56;5.30;99.90
66610;DHT22;53468;48.276;14.416;2022-11-20T15:46:32;5.30;99.90
66610;DHT22;53468;48.276;14.416;2022-11-20T15:52:08;5.20;99.90
66610;DHT22;53468;48.276;14.416;2022-11-20T15:57:41;5.10;99.90
66610;DHT22;53468;48.276;14.416;2022-11-20T16:03:16;5.10;99.90
66610;DHT22;53468;48.276;14.416;2022-11-20T16:08:49;5.10;99.90
66610;DHT22;53468;48.276;14.416;2022-11-20T16:14:23;5.20;99.90
66610;DHT22;53468;48.276;14.416;2022-11-20T16:20:15;5.20;99.90
66610;DHT22;53468;48.276;14.416;2022-11-20T17:31:00;5.30;99.90
66610;DHT22;53468;48.276;14.416;2022-11-20T18:27:59;5.20;99.90
66610;DHT22;53468;48.276;14.416;2022-11-20T18:34:25;5.30;99.90
66610;DHT22;53468;48.276;14.416;2022-11-20T18:40:17;5.30;99.90
66610;DHT22;53468;48.276;14.416;2022-11-20T18:46:03;5.30;99.90
66610;DHT22;53468;48.276;14.416;2022-11-20T18:51:47;5.30;99.90
66610;DHT22;53468;48.276;14.416;2022-11-20T18:57:58;5.30;99.90
66610;DHT22;53468;48.276;14.416;2022-11-20T19:03:58;5.30;99.90
66610;DHT22;53468;48.276;14.416;2022-11-20T19:10:09;5.30;99.90
66610;DHT22;53468;48.276;14.416;2022-11-20T19:16:01;5.30;99.90
66610;DHT22;53468;48.276;14.416;2022-11-20T20:07:26;4.90;99.90
66610;DHT22;53468;48.276;14.416;2022-11-20T20:13:27;4.90;99.90
66610;DHT22;53468;48.276;14.416;2022-11-20T20:26:28;5.00;99.90
66610;DHT22;53468;48.276;14.416;2022-11-20T20:32:48;5.00;99.90
66610;DHT22;53468;48.276;14.416;2022-11-20T20:38:24;5.10;99.90
66610;DHT22;53468;48.276;14.416;2022-11-20T20:50:59;5.10;99.90
66610;DHT22;53468;48.276;14.416;2022-11-20T20:56:46;5.10;99.90
66610;DHT22;53468;48.276;14.416;2022-11-20T21:02:33;5.00;99.90
66610;DHT22;53468;48.276;14.416;2022-11-20T21:08:10;4.80;99.90
66610;DHT22;53468;48.276;14.416;2022-11-20T21:14:01;4.80;99.90
66610;DHT22;53468;48.276;14.416;2022-11-20T21:19:45;4.70;99.90
66610;DHT22;53468;48.276;14.416;2022-11-20T21:25:31;4.70;99.90
66610;DHT22;53468;48.276;14.416;2022-11-20T21:31:08;4.70;99.90
66610;DHT22;53468;48.276;14.416;2022-11-20T21:36:41;4.70;99.90
66610;DHT22;53468;48.276;14.416;2022-11-20T21:42:15;4.70;99.90
66610;DHT22;53468;48.276;14.416;2022-11-20T21:47:48;4.80;99.90
66610;DHT22;53468;48.276;14.416;2022-11-20T21:53:22;4.80;99.90
66610;DHT22;53468;48.276;14.416;2022-11-20T21:59:11;4.80;99.90
66610;DHT22;53468;48.276;14.416;2022-11-20T22:05:18;4.80;99.90
66610;DHT22;53468;48.276;14.416;2022-11-20T22:50:23;4.20;99.90
66610;DHT22;53468;48.276;14.416;2022-11-20T22:55:56;4.10;99.90
66610;DHT22;53468;48.276;14.416;2022-11-20T23:01:29;4.20;99.90
66610;DHT22;53468;48.276;14.416;2022-11-20T23:07:30;4.10;99.90
66610;DHT22;53468;48.276;14.416;2022-11-20T23:13:27;4.00;99.90
66610;DHT22;53468;48.276;14.416;2022-11-20T23:19:39;4.00;99.90
66610;DHT22;53468;48.276;14.416;2022-11-20T23:38:25;3.90;99.90
66610;DHT22;53468;48.276;14.416;2022-11-20T23:44:34;4.00;99.90
66610;DHT22;53468;48.276;14.416;2022-11-20T23:50:36;4.00;99.90
66610;DHT22;53468;48.276;14.416;2022-11-20T23:56:53;4.10;99.90
